AirNav   Air Wisconsin Up To $57,000 Bonus
 
 1111 users online  

PN86 Goodwill Fire Company Heliport Nr 1
Minersville, Pennsylvania, USA

GOING TO MINERSVILLE?


FAA INFORMATION EFFECTIVE 02 JANUARY 2020

Location

FAA Identifier: PN86
Lat/Long: 40-41-38.0000N 076-15-22.0000W
40-41.633333N 076-15.366667W
40.6938889,-76.2561111
(estimated)
Elevation: 710 ft. / 216 m (estimated)
Time zone: UTC -5 (UTC -4 during Daylight Saving Time)
Zip code: 17954

Heliport Operations

Heliport use: Private use. Permission required prior to landing
Activation date: 02/2007
Control tower: no
ARTCC: NEW YORK CENTER
FSS: WILLIAMSPORT FLIGHT SERVICE STATION
Attendance: UNATNDD
Wind indicator: yes
Segmented circle: no
Lights: ACTVT PERIMETER LGTS - 123.05.
Beacon: white-green-yellow (heliport)
ACTVT ROTG BCN - 123.05.

Heliport Communications

WX AWOS-3 at ZER (5 nm W): 127.575 (570-544-2778)
WX AWOS-3 at N79 (16 nm NW): 119.175 (570-672-0389)

Nearby radio navigation aids

VOR radial/distance  VOR name  Freq  Var
RAVr073/17.8RAVINE VORTAC114.6011W
ETXr294/26.9EAST TEXAS VOR/DME110.2009W
MIPr146/27.1MILTON VORTAC109.2009W
SEGr110/29.1SELINSGROVE VOR/DME110.4008W
LRPr012/34.5LANCASTER VOR/DME117.3009W
FJCr277/36.5ALLENTOWN VORTAC117.5010W

 
NDB name  Hdg/Dist  Freq  Var  ID
BELLGROVE051/20.632810WBZJ -... --.. .---

Heliport Services

Runway Information

Helipad H1

Dimensions: 40 x 40 ft. / 12 x 12 m
Surface: asphalt
Runway edge lights: PERI
Traffic pattern: leftleft

Heliport Ownership and Management from official FAA records

Ownership: Privately-owned
Owner: GOODWILL FIRE CO NO. 1
25 NORTH STREET
MINERSVILLE, PA 17954
Phone 570-544-6099
Manager: ALLEN REBER
25 NORTH STREET
MINERSVILLE, PA 17954
Phone 570-544-6099

Additional Remarks

FATO MARKED 70 FT BY 65 FT, NOT IN CENTER OF ASPHALT PAD.
SINGLE APCH/DEP HDGS 190/010
FOR CD CTC HARRISBURG APCH AT 800-932-0712.

Instrument Procedures

There are no published instrument procedures at PN86.

Some nearby airports with instrument procedures:

KZER - Schuylkill County/Joe Zerbey Airport (5 nm W)
N79 - Northumberland County Airport (16 nm NW)
74N - Bendigo Airport (16 nm SW)
N13 - Bloomsburg Municipal Airport (20 nm NW)
9D4 - Deck Airport (21 nm S)
 
Loc | Ops | Rwys | IFR | FBO | Links
Com | Nav | Svcs | Stats | Notes
Area around PN86 (Goodwill Fire Company Heliport Nr 1)
 
Road maps at: MapQuest Bing Google
 
Aerial photo
No photo
 
Sectional chart

 
Airport distance calculator
Flying to Goodwill Fire Company Heliport Nr 1? Find the distance to fly.

From to PN86

Sunrise and sunset
Times for 21-Jan-2020
 Local
(UTC-5)
 Zulu
(UTC)
Morning civil twilight06:5511:55
Sunrise07:2512:25
Sunset17:0822:08
Evening civil twilight17:3822:38

Current date and time
Zulu (UTC)  22-Jan-2020 02:31:28
Local (UTC-5)  21-Jan-2020 21:31:28
 
METAR
KHZL 
21nm NE 
220216Z AUTO 00000KT 10SM CLR M07/M11 A3041 RMK AO2
KMUI 
22nm SW 
220156Z AUTO 27006KT 10SM CLR M02/M11 A3047 RMK AO2 SLP328 T10231106
KRDG 
24nm SE 
220154Z 00000KT 10SM CLR M03/M09 A3047 RMK AO2 SLP327 T10331094
KSEG 
29nm W 
220153Z AUTO 30006KT 10SM CLR M03/M10 A3048 RMK AO2 SLP329 T10331100
KLNS 
35nm S 
220153Z 30005KT 10SM CLR M04/M10 A3047 RMK AO2 SLP325 T10391100
KXLL 
36nm E 
220215Z AUTO 00000KT 10SM CLR M02/M10 A3048 RMK AO2
KABE 
37nm E 
220151Z 00000KT 10SM CLR M04/M11 A3046 RMK AO2 SLP319 T10391111
KMDT 
38nm SW 
220156Z 31008KT 10SM FEW250 M02/M09 A3048 RMK AO2 SLP328 T10221089
KCXY 
39nm SW 
220156Z 26006KT 10SM CLR M02/M09 A3049 RMK AO2 SLP331 T10221094
TAF
KMUI 
22nm SW 
211900Z 2119/2301 31009KT 9999 SCT035 QNH3042INS BECMG 2122/2123 VRB06KT 9999 FEW016 QNH3045INS BECMG 2203/2204 VRB06KT 9999 SKC QNH3040INS TX00/2219Z TNM09/2213Z LAST NO AMDS AFT 2205 NEXT 2211
KRDG 
24nm SE 
211722Z 2118/2218 33010KT P6SM SKC FM212300 VRB03KT P6SM SCT200 FM221600 26005KT P6SM SKC
NOTAMs
Click for the latest NOTAMs
NOTAMs are issued by the DoD/FAA and will open in a separate window not controlled by AirNav.

 

 
 

Would you like to see your business listed on this page?

 If your business provides an interesting product or service to pilots, flight crews, aircraft, or users of the Goodwill Fire Company Heliport Nr 1, you should consider listing it here.  To start the listing process, click on the button below
 
Add a business
 

Other Pages about Goodwill Fire Company Heliport Nr 1

Update a link
 
Copyright © AirNav, LLC. All rights reserved. Privacy Policy  Contact